createdAt,value
2019-02-12T00:00:48.226Z,1.90
2019-02-12T00:03:20.469Z,3.13
2019-02-12T00:06:00.000Z,1.97
2019-02-12T00:08:36.139Z,2.50
2019-02-12T00:11:37.415Z,2.20
2019-02-12T00:13:50.843Z,2.13
2019-02-12T00:16:24.698Z,2.30
2019-02-12T00:18:59.348Z,1.80
2019-02-12T00:21:36.256Z,2.20
2019-02-12T00:24:13.641Z,2.20
2019-02-12T00:26:43.971Z,2.63
2019-02-12T00:29:18.742Z,1.80
2019-02-12T00:31:58.045Z,2.07
2019-02-12T00:34:33.584Z,1.70
2019-02-12T00:37:03.485Z,1.87
2019-02-12T00:39:39.639Z,2.07
2019-02-12T00:42:30.454Z,2.20
2019-02-12T00:44:54.182Z,2.13
2019-02-12T00:47:38.985Z,2.77
2019-02-12T00:50:11.138Z,2.10
2019-02-12T00:52:47.616Z,2.80
2019-02-12T00:55:36.785Z,2.23
2019-02-12T00:58:17.001Z,2.47
2019-02-12T01:00:50.278Z,2.53
2019-02-12T01:03:28.048Z,2.20
2019-02-12T01:06:09.359Z,2.87
2019-02-12T01:08:52.737Z,2.50
2019-02-12T01:11:18.918Z,2.60
2019-02-12T01:13:56.252Z,2.60
2019-02-12T01:16:26.317Z,2.50
2019-02-12T01:19:23.116Z,2.17
2019-02-12T01:22:07.058Z,2.40
2019-02-12T01:24:40.914Z,2.80
2019-02-12T01:27:12.008Z,2.30
2019-02-12T01:30:07.010Z,1.90
2019-02-12T01:33:01.279Z,2.40
2019-02-12T01:35:30.079Z,2.23
2019-02-12T01:38:01.840Z,3.07
2019-02-12T01:43:39.552Z,2.30
2019-02-12T01:46:19.914Z,2.07
2019-02-12T01:50:28.185Z,2.87
2019-02-12T01:51:34.945Z,2.17
2019-02-12T01:54:01.942Z,2.63
2019-02-12T01:56:35.476Z,2.43
2019-02-12T01:59:06.941Z,2.07
2019-02-12T02:01:41.360Z,1.97
2019-02-12T02:04:34.623Z,2.77
2019-02-12T02:07:04.947Z,2.50
2019-02-12T02:09:35.016Z,2.70
2019-02-12T02:12:15.105Z,2.00
2019-02-12T02:14:56.088Z,2.83
2019-02-12T02:17:30.326Z,2.47
2019-02-12T02:20:04.317Z,2.57
2019-02-12T02:22:50.891Z,3.23
2019-02-12T02:25:26.416Z,2.40
2019-02-12T02:28:05.495Z,2.03
2019-02-12T02:30:50.714Z,3.17
2019-02-12T02:33:19.490Z,2.13
2019-02-12T02:35:52.370Z,2.50
2019-02-12T02:38:50.822Z,2.50
2019-02-12T02:41:21.916Z,2.10
2019-02-12T02:43:45.785Z,2.53
2019-02-12T02:46:22.658Z,2.73
2019-02-12T02:48:52.678Z,2.40
2019-02-12T02:51:41.895Z,2.20
2019-02-12T02:54:09.398Z,2.53
2019-02-12T02:56:48.119Z,2.27
2019-02-12T02:59:20.798Z,2.07
2019-02-12T03:01:54.709Z,2.40
2019-02-12T03:04:26.462Z,2.37
2019-02-12T03:07:04.467Z,2.13
2019-02-12T03:09:53.991Z,2.37
2019-02-12T03:12:35.016Z,2.17
2019-02-12T03:15:00.781Z,2.50
2019-02-12T03:17:33.971Z,1.80
2019-02-12T03:20:24.216Z,2.97
2019-02-12T03:22:45.191Z,1.93
2019-02-12T03:25:12.971Z,2.00
2019-02-12T03:30:15.405Z,2.03
2019-02-12T03:32:56.778Z,1.70
2019-02-12T03:35:33.520Z,1.83
2019-02-12T03:38:19.390Z,2.00
2019-02-12T03:41:01.352Z,1.63
2019-02-12T03:43:32.339Z,1.90
2019-02-12T03:46:16.823Z,1.80
2019-02-12T03:48:47.145Z,1.90
2019-02-12T03:51:21.730Z,1.87
2019-02-12T03:53:53.626Z,2.17
2019-02-12T03:56:33.967Z,2.07
2019-02-12T03:59:04.757Z,2.07
2019-02-12T04:01:47.469Z,2.40
2019-02-12T04:04:12.928Z,1.73
2019-02-12T04:06:54.635Z,3.00
2019-02-12T04:09:32.736Z,2.13
2019-02-12T04:12:04.495Z,2.23
2019-02-12T04:14:34.676Z,2.13
2019-02-12T04:17:16.554Z,2.13
2019-02-12T04:19:51.330Z,2.10
2019-02-12T04:25:14.470Z,1.93
2019-02-12T04:28:14.914Z,1.73
2019-02-12T04:30:36.261Z,2.20
2019-02-12T04:33:11.996Z,2.10
2019-02-12T04:35:41.239Z,2.00
2019-02-12T04:38:18.450Z,2.37
2019-02-12T04:41:10.700Z,2.07
2019-02-12T04:43:41.112Z,1.70
2019-02-12T04:46:17.906Z,2.03
2019-02-12T04:48:56.515Z,2.40
2019-02-12T04:51:32.078Z,2.60
2019-02-12T04:54:02.349Z,2.17
2019-02-12T04:56:47.929Z,2.40
2019-02-12T04:59:11.140Z,2.33
2019-02-12T05:01:44.440Z,2.10
2019-02-12T05:04:24.431Z,2.60
2019-02-12T05:07:01.824Z,2.47
2019-02-12T05:09:41.468Z,2.70
2019-02-12T05:12:12.453Z,3.13
2019-02-12T05:15:30.441Z,2.80
2019-02-12T05:17:51.756Z,2.70
2019-02-12T05:20:16.189Z,2.80
2019-02-12T05:23:12.469Z,3.07
2019-02-12T05:25:44.895Z,2.90
2019-02-12T05:28:25.973Z,2.47
2019-02-12T05:31:06.724Z,2.13
2019-02-12T05:33:40.957Z,2.03
2019-02-12T05:36:52.800Z,2.70
2019-02-12T05:39:07.258Z,3.20
2019-02-12T05:41:37.678Z,2.20
2019-02-12T05:44:11.332Z,2.20
2019-02-12T05:48:21.449Z,2.00
2019-02-12T05:49:42.748Z,2.57
2019-02-12T05:52:17.834Z,2.00
2019-02-12T05:55:02.698Z,2.70
2019-02-12T05:57:54.325Z,2.60
2019-02-12T06:00:34.823Z,2.40
2019-02-12T06:02:38.278Z,2.60
2019-02-12T06:05:11.004Z,2.03
2019-02-12T06:07:59.610Z,3.50
2019-02-12T06:10:32.285Z,2.90
2019-02-12T06:13:36.353Z,2.50
2019-02-12T06:16:09.489Z,2.27
2019-02-12T06:18:45.856Z,2.40
2019-02-12T06:21:28.105Z,2.40
2019-02-12T06:24:06.009Z,2.57
2019-02-12T06:27:02.344Z,2.33
2019-02-12T06:29:23.452Z,2.50
2019-02-12T06:32:01.553Z,2.60
2019-02-12T06:34:39.100Z,2.33
2019-02-12T06:37:09.487Z,2.53
2019-02-12T06:39:47.885Z,2.60
2019-02-12T06:42:36.850Z,3.03
2019-02-12T06:45:19.466Z,2.17
2019-02-12T06:47:57.514Z,2.13
2019-02-12T06:50:44.739Z,2.20
2019-02-12T06:53:12.784Z,2.20
2019-02-12T06:55:52.904Z,2.50
2019-02-12T06:58:33.008Z,2.53
2019-02-12T07:01:09.121Z,2.70
2019-02-12T07:03:52.294Z,3.07
2019-02-12T07:07:07.824Z,3.10
2019-02-12T07:09:40.386Z,2.20
2019-02-12T07:12:28.563Z,2.83
2019-02-12T07:15:06.034Z,2.40
2019-02-12T07:18:14.705Z,2.57
2019-02-12T07:21:20.770Z,2.53
2019-02-12T07:23:55.292Z,3.13
2019-02-12T07:26:55.113Z,2.67
2019-02-12T07:29:42.481Z,2.60
2019-02-12T07:32:29.999Z,3.30
2019-02-12T07:35:20.808Z,2.10
2019-02-12T07:38:14.647Z,2.60
2019-02-12T07:41:20.584Z,2.10
2019-02-12T07:44:11.551Z,2.53
2019-02-12T07:49:58.226Z,2.10
2019-02-12T07:52:35.714Z,2.20
2019-02-12T07:55:42.552Z,2.37
2019-02-12T07:58:25.363Z,2.10
2019-02-12T08:01:09.561Z,2.40
2019-02-12T08:04:23.892Z,2.83
2019-02-12T08:07:22.338Z,3.03
2019-02-12T08:10:09.959Z,2.33
2019-02-12T08:13:01.849Z,2.17
2019-02-12T08:15:47.850Z,2.23
2019-02-12T08:18:34.279Z,2.60
2019-02-12T08:24:21.107Z,2.40
2019-02-12T08:27:19.967Z,2.20
2019-02-12T08:30:22.707Z,1.97
2019-02-12T08:33:30.051Z,2.27
2019-02-12T08:36:01.237Z,2.07
2019-02-12T08:39:00.390Z,1.97
2019-02-12T08:42:15.056Z,1.90
2019-02-12T08:45:19.883Z,2.70
2019-02-12T08:48:23.846Z,3.33
2019-02-12T08:51:00.467Z,2.77
2019-02-12T08:54:00.230Z,2.20
2019-02-12T08:56:59.128Z,2.33
2019-02-12T08:59:43.883Z,2.87
2019-02-12T09:02:35.762Z,3.03
2019-02-12T09:05:41.853Z,2.70
2019-02-12T09:08:34.236Z,2.37
2019-02-12T09:11:25.545Z,2.60
2019-02-12T09:14:10.973Z,3.13
2019-02-12T09:17:37.780Z,2.40
2019-02-12T09:20:45.264Z,2.47
2019-02-12T09:25:58.953Z,2.50
2019-02-12T09:28:34.690Z,2.77
2019-02-12T09:31:37.967Z,2.70
2019-02-12T09:34:43.273Z,2.53
2019-02-12T09:37:52.076Z,3.47
2019-02-12T09:40:30.749Z,2.97
2019-02-12T09:43:27.396Z,2.87
2019-02-12T09:46:35.665Z,2.33
2019-02-12T09:49:36.827Z,3.00
2019-02-12T09:52:30.846Z,2.30
2019-02-12T09:55:31.161Z,2.23
2019-02-12T10:01:27.754Z,2.70
2019-02-12T10:04:32.900Z,2.17
2019-02-12T10:07:38.416Z,2.27
2019-02-12T10:10:25.099Z,2.03
2019-02-12T10:13:05.898Z,1.57
2019-02-12T10:16:00.113Z,1.80
2019-02-12T10:18:35.451Z,1.40
2019-02-12T10:21:30.518Z,1.87
2019-02-12T10:27:10.263Z,1.73
2019-02-12T10:30:04.123Z,1.90
2019-02-12T10:32:36.005Z,1.80
2019-02-12T10:35:06.154Z,3.17
2019-02-12T10:37:35.768Z,2.80
2019-02-12T10:40:06.016Z,2.20
2019-02-12T10:42:35.517Z,2.90
2019-02-12T10:45:08.165Z,2.47
2019-02-12T10:47:37.676Z,2.80
2019-02-12T10:50:08.941Z,2.37
2019-02-12T10:52:38.528Z,2.80
2019-02-12T10:55:08.698Z,2.63
2019-02-12T10:57:38.346Z,2.83
2019-02-12T11:00:13.773Z,2.87
2019-02-12T11:02:43.343Z,2.40
2019-02-12T11:05:16.557Z,3.43
2019-02-12T11:07:48.161Z,2.70
2019-02-12T11:10:17.814Z,3.07
2019-02-12T11:12:47.545Z,2.60
2019-02-12T11:15:17.161Z,3.00
2019-02-12T11:17:46.750Z,2.90
2019-02-12T11:20:16.360Z,2.83
2019-02-12T11:22:46.037Z,3.13
2019-02-12T11:25:15.724Z,2.77
2019-02-12T11:27:48.100Z,2.97
2019-02-12T11:30:17.693Z,3.03
2019-02-12T11:32:47.297Z,2.83
2019-02-12T11:35:16.917Z,2.83
2019-02-12T11:37:46.538Z,2.77
2019-02-12T11:40:16.770Z,3.63
2019-02-12T11:42:46.302Z,3.57
2019-02-12T11:45:16.293Z,3.70
2019-02-12T11:47:45.780Z,2.90
2019-02-12T11:50:15.363Z,2.47
2019-02-12T11:52:46.127Z,2.63
2019-02-12T11:55:16.032Z,2.57
2019-02-12T11:57:45.559Z,3.20
2019-02-12T12:00:30.314Z,3.53
2019-02-12T12:02:59.837Z,3.37
2019-02-12T12:05:29.470Z,3.13
2019-02-12T12:07:59.061Z,2.80
2019-02-12T12:10:28.728Z,3.07
2019-02-12T12:12:58.293Z,2.93
2019-02-12T12:15:27.909Z,2.73
2019-02-12T12:17:57.417Z,2.57
2019-02-12T12:20:26.908Z,2.60
2019-02-12T12:22:56.519Z,2.37
2019-02-12T12:25:26.238Z,2.87
2019-02-12T12:27:55.774Z,3.23
2019-02-12T12:30:25.360Z,2.50
2019-02-12T12:32:56.489Z,2.10
2019-02-12T12:35:26.405Z,2.50
2019-02-12T12:37:56.098Z,2.33
2019-02-12T12:40:25.588Z,2.53
2019-02-12T12:42:55.249Z,2.60
2019-02-12T12:45:24.901Z,3.03
2019-02-12T12:47:54.486Z,2.27
2019-02-12T12:50:24.919Z,2.07
2019-02-12T12:52:54.510Z,2.13
2019-02-12T12:55:25.369Z,2.13
2019-02-12T12:57:55.059Z,1.87
2019-02-12T13:00:24.795Z,1.90
2019-02-12T13:02:54.427Z,2.17
2019-02-12T13:05:24.058Z,3.00
2019-02-12T13:07:53.910Z,2.70
2019-02-12T13:10:23.725Z,2.70
2019-02-12T13:12:53.492Z,2.80
2019-02-12T13:15:23.337Z,2.87
2019-02-12T13:17:52.969Z,2.87
2019-02-12T13:20:22.556Z,2.90
2019-02-12T13:22:52.101Z,2.73
2019-02-12T13:25:21.601Z,2.20
2019-02-12T13:27:51.211Z,2.43
2019-02-12T13:30:20.893Z,2.53
2019-02-12T13:32:50.516Z,3.20
2019-02-12T13:35:20.156Z,2.67
2019-02-12T13:37:49.694Z,2.90
2019-02-12T13:40:19.295Z,2.87
2019-02-12T13:42:48.854Z,2.50
2019-02-12T13:45:18.528Z,2.23
2019-02-12T13:47:48.044Z,3.10
2019-02-12T13:50:17.682Z,2.93
2019-02-12T13:52:47.269Z,2.90
2019-02-12T13:55:17.884Z,3.13
2019-02-12T13:57:47.596Z,3.00
2019-02-12T14:00:18.160Z,3.23
2019-02-12T14:02:47.721Z,3.73
2019-02-12T14:05:23.155Z,2.83
2019-02-12T14:07:52.767Z,3.93
2019-02-12T14:10:22.331Z,3.17
2019-02-12T14:12:51.846Z,3.83
2019-02-12T14:15:21.396Z,3.53
2019-02-12T14:17:51.020Z,3.80
2019-02-12T14:20:20.582Z,2.93
2019-02-12T14:22:50.167Z,3.50
2019-02-12T14:25:25.404Z,3.97
2019-02-12T14:27:51.453Z,3.23
2019-02-12T14:30:23.561Z,3.40
2019-02-12T14:32:55.546Z,3.57
2019-02-12T14:35:25.389Z,3.77
2019-02-12T14:37:55.300Z,4.10
2019-02-12T14:40:24.876Z,3.40
2019-02-12T14:42:54.752Z,3.63
2019-02-12T14:45:24.815Z,3.97
2019-02-12T14:47:54.343Z,4.00
2019-02-12T14:50:23.891Z,4.27
2019-02-12T14:52:56.396Z,4.27
2019-02-12T14:55:33.395Z,3.63
2019-02-12T14:57:57.377Z,3.33
2019-02-12T15:00:27.242Z,4.20
2019-02-12T15:02:56.828Z,3.87
2019-02-12T15:05:26.406Z,4.47
2019-02-12T15:07:55.971Z,4.63
2019-02-12T15:10:25.517Z,4.20
2019-02-12T15:12:55.210Z,4.30
2019-02-12T15:15:24.756Z,4.13
2019-02-12T15:17:54.372Z,4.50
2019-02-12T15:20:26.004Z,4.60
2019-02-12T15:22:55.838Z,5.27
2019-02-12T15:25:25.589Z,5.90
2019-02-12T15:27:55.167Z,5.27
2019-02-12T15:30:24.714Z,5.70
2019-02-12T15:32:54.276Z,6.77
2019-02-12T15:35:23.959Z,6.50
2019-02-12T15:37:53.481Z,6.13
2019-02-12T15:40:23.128Z,5.77
2019-02-12T15:42:52.648Z,6.73
2019-02-12T15:45:23.505Z,7.13
2019-02-12T15:47:52.992Z,7.23
2019-02-12T15:50:22.668Z,6.93
2019-02-12T15:52:52.265Z,7.63
2019-02-12T15:55:22.430Z,7.20
2019-02-12T15:57:52.249Z,7.80
2019-02-12T16:00:21.804Z,7.83
2019-02-12T16:02:56.114Z,8.40
2019-02-12T16:05:26.683Z,9.63
2019-02-12T16:07:56.493Z,8.17
2019-02-12T16:10:25.967Z,8.60
2019-02-12T16:12:55.582Z,9.10
2019-02-12T16:15:25.216Z,8.23
2019-02-12T16:17:54.865Z,9.67
2019-02-12T16:20:24.508Z,8.73
2019-02-12T16:22:53.993Z,9.03
2019-02-12T16:25:23.600Z,9.07
2019-02-12T16:27:53.228Z,8.93
2019-02-12T16:30:22.922Z,10.33
2019-02-12T16:32:52.519Z,9.03
2019-02-12T16:35:22.096Z,9.40
2019-02-12T16:37:51.832Z,10.60
2019-02-12T16:40:23.221Z,9.20
2019-02-12T16:42:52.688Z,10.93
2019-02-12T16:45:25.664Z,10.30
2019-02-12T16:47:55.244Z,11.00
2019-02-12T16:50:24.853Z,12.23
2019-02-12T16:52:54.909Z,11.83
2019-02-12T16:55:24.482Z,11.87
2019-02-12T16:57:54.000Z,12.50
2019-02-12T17:00:24.332Z,12.13
2019-02-12T17:02:54.737Z,12.87
2019-02-12T17:05:24.293Z,12.47
2019-02-12T17:07:53.934Z,13.20
2019-02-12T17:10:23.525Z,14.30
2019-02-12T17:12:53.196Z,13.17
2019-02-12T17:15:22.994Z,12.43
2019-02-12T17:17:52.676Z,13.30
2019-02-12T17:20:23.773Z,13.07
2019-02-12T17:22:53.463Z,14.53
2019-02-12T17:25:23.091Z,14.77
2019-02-12T17:27:52.658Z,15.00
2019-02-12T17:30:22.307Z,16.40
2019-02-12T17:32:51.934Z,16.87
2019-02-12T17:35:21.585Z,15.63
2019-02-12T17:37:51.300Z,17.13
2019-02-12T17:40:21.053Z,17.50
2019-02-12T17:42:50.600Z,16.63
2019-02-12T17:45:20.281Z,18.53
2019-02-12T17:47:51.142Z,18.27
2019-02-12T17:50:20.737Z,17.70
2019-02-12T17:52:50.696Z,17.57
2019-02-12T17:55:20.302Z,17.17
2019-02-12T17:57:49.848Z,18.77
2019-02-12T18:00:24.299Z,17.33
2019-02-12T18:02:54.025Z,17.43
2019-02-12T18:05:23.617Z,18.67
2019-02-12T18:07:53.172Z,18.90
2019-02-12T18:10:22.894Z,18.40
2019-02-12T18:12:52.546Z,18.30
2019-02-12T18:15:22.107Z,17.93
2019-02-12T18:17:51.957Z,18.87
2019-02-12T18:20:26.574Z,18.43
2019-02-12T18:22:53.319Z,18.33
2019-02-12T18:25:22.977Z,18.03
2019-02-12T18:27:52.600Z,18.63
2019-02-12T18:30:22.198Z,18.90
2019-02-12T18:32:51.836Z,17.77
2019-02-12T18:35:21.949Z,18.70
2019-02-12T18:37:51.637Z,18.77
2019-02-12T18:40:21.450Z,18.33
2019-02-12T18:42:51.101Z,18.93
2019-02-12T18:45:25.816Z,18.60
2019-02-12T18:47:55.428Z,18.53
2019-02-12T18:50:25.232Z,18.53
2019-02-12T18:52:55.076Z,19.17
2019-02-12T18:55:25.001Z,19.23
2019-02-12T18:57:55.017Z,19.10
2019-02-12T19:00:25.581Z,20.13
2019-02-12T19:02:58.407Z,18.13
2019-02-12T19:05:28.884Z,17.13
2019-02-12T19:07:58.793Z,18.03
2019-02-12T19:10:29.923Z,18.30
2019-02-12T19:13:01.865Z,18.27
2019-02-12T19:15:37.180Z,18.07
2019-02-12T19:18:10.888Z,19.07
2019-02-12T19:20:47.508Z,16.87
2019-02-12T19:23:27.376Z,17.53
2019-02-12T19:26:00.285Z,17.70
2019-02-12T19:28:31.407Z,18.57
2019-02-12T19:31:03.062Z,18.27
2019-02-12T19:33:34.926Z,18.23
2019-02-12T19:36:06.312Z,18.53
2019-02-12T19:38:35.949Z,17.90
2019-02-12T19:41:05.581Z,17.90
2019-02-12T19:43:35.100Z,19.00
2019-02-12T19:46:04.733Z,18.33
2019-02-12T19:48:34.369Z,18.20
2019-02-12T19:51:03.941Z,18.33
2019-02-12T19:53:33.457Z,18.73
2019-02-12T19:56:03.208Z,19.33
2019-02-12T19:58:32.934Z,19.37
2019-02-12T20:01:02.452Z,18.50
2019-02-12T20:03:32.633Z,19.20
2019-02-12T20:06:02.288Z,19.60
2019-02-12T20:08:31.828Z,19.60
2019-02-12T20:11:01.373Z,19.97
2019-02-12T20:13:30.904Z,19.13
2019-02-12T20:16:00.489Z,20.17
2019-02-12T20:18:30.060Z,20.07
2019-02-12T20:20:59.617Z,20.97
2019-02-12T20:23:29.215Z,20.60
2019-02-12T20:25:58.895Z,19.60
2019-02-12T20:28:29.546Z,20.03
2019-02-12T20:30:59.275Z,20.57
2019-02-12T20:33:28.874Z,21.17
2019-02-12T20:35:58.560Z,20.50
2019-02-12T20:38:28.100Z,21.63
2019-02-12T20:40:57.597Z,21.77
2019-02-12T20:43:27.291Z,21.03
2019-02-12T20:45:56.857Z,20.97
2019-02-12T20:48:26.378Z,20.73
2019-02-12T20:50:56.052Z,20.63
2019-02-12T20:53:25.645Z,20.40
2019-02-12T20:55:55.505Z,19.80
2019-02-12T20:58:25.031Z,19.57
2019-02-12T21:00:54.640Z,20.43
2019-02-12T21:03:24.215Z,21.27
2019-02-12T21:05:53.800Z,19.93
2019-02-12T21:08:23.456Z,20.83
2019-02-12T21:10:53.292Z,20.60
2019-02-12T21:13:22.884Z,20.20
2019-02-12T21:15:52.383Z,21.03
2019-02-12T21:18:22.564Z,21.73
2019-02-12T21:20:52.209Z,20.33
2019-02-12T21:23:22.944Z,20.27
2019-02-12T21:25:52.705Z,22.00
2019-02-12T21:28:22.405Z,19.67
2019-02-12T21:30:52.044Z,21.40
2019-02-12T21:33:21.674Z,20.40
2019-02-12T21:35:53.195Z,20.83
2019-02-12T21:38:22.931Z,20.83
2019-02-12T21:40:52.616Z,21.10
2019-02-12T21:43:22.683Z,21.30
2019-02-12T21:45:52.279Z,21.00
2019-02-12T21:48:21.820Z,21.23
2019-02-12T21:50:51.436Z,22.00
2019-02-12T21:53:22.531Z,21.30
2019-02-12T21:55:52.138Z,22.00
2019-02-12T21:58:24.106Z,21.07
2019-02-12T22:00:53.626Z,21.40
2019-02-12T22:03:23.211Z,21.43
2019-02-12T22:05:52.872Z,23.07
2019-02-12T22:08:22.719Z,22.83
2019-02-12T22:10:52.524Z,22.40
2019-02-12T22:13:22.289Z,22.87
2019-02-12T22:15:51.925Z,22.30
2019-02-12T22:18:21.540Z,22.10
2019-02-12T22:20:51.082Z,21.03
2019-02-12T22:23:20.594Z,21.83
2019-02-12T22:25:50.192Z,21.30
2019-02-12T22:28:19.685Z,22.60
2019-02-12T22:30:49.208Z,21.97
2019-02-12T22:33:18.894Z,22.67
2019-02-12T22:35:48.424Z,22.03
2019-02-12T22:38:17.927Z,23.07
2019-02-12T22:40:47.567Z,23.07
2019-02-12T22:43:17.059Z,22.03
2019-02-12T22:45:46.616Z,22.83
2019-02-12T22:48:16.249Z,23.97
2019-02-12T22:50:45.747Z,21.70
2019-02-12T22:53:15.287Z,23.37
2019-02-12T22:55:44.796Z,23.20
2019-02-12T22:58:14.410Z,22.43
2019-02-12T23:00:48.650Z,23.43
2019-02-12T23:03:18.912Z,22.67
2019-02-12T23:05:48.500Z,21.70
2019-02-12T23:08:18.125Z,22.77
2019-02-12T23:10:47.736Z,22.33
2019-02-12T23:13:17.367Z,22.83
2019-02-12T23:15:46.962Z,21.83
2019-02-12T23:18:16.550Z,22.30
2019-02-12T23:20:46.213Z,22.33
2019-02-12T23:23:15.933Z,22.60
2019-02-12T23:25:45.640Z,23.60
2019-02-12T23:28:15.352Z,23.67
2019-02-12T23:30:45.006Z,22.07
2019-02-12T23:33:15.342Z,22.87
2019-02-12T23:35:46.246Z,22.90
2019-02-12T23:38:15.852Z,23.77
2019-02-12T23:40:45.419Z,23.67
2019-02-12T23:43:15.073Z,22.90
2019-02-12T23:45:44.928Z,23.97
2019-02-12T23:48:14.513Z,22.43
2019-02-12T23:50:44.609Z,23.37
2019-02-12T23:53:14.128Z,22.33
2019-02-12T23:55:43.793Z,24.70
2019-02-12T23:58:13.363Z,24.47
